Centerville, LA (70522)

9:27 AM CST on March 04, 2015 (GMT -0600)
Williams Memorial | Change Station
CLOSE
Current Station
Airport
Location: Patterson,
Elevation: 10 ft
Nearby Weather Stations
Active Advisory: Dense Fog Advisory

Elev 10 ft 29.71 °N, 91.34 °W | Updated 12 minutes ago

Overcast
Overcast
72 °F
Feels Like 72 °F
N
9
Wind Variable Wind from SSE

Today
High -- | Low -- °F
--% Chance of Precip.
Yesterday
High -- | Low -- °F
Precip. -- in
6:28 AM 6:06 PM
Waxing Gibbous, 99% visible
Pressure 30.00 in
Visibility 10.0 miles
Clouds Few 800 ft
Few 2800 ft
Dew Point 70 °F
Humidity 94%
Rainfall 0.00 in
Snow Depth Not available.
UV 4 out of 12
Pollen 10.30 out of 12
Air Quality Not available.
Flu Activity Not available.
METAR KPTN 041515Z AUTO 16008KT 10SM FEW008 FEW028 22/21 A3000 RMK AO1

More Conditions Fewer Conditions

Pressure 30.00 in
Visibility 10.0 miles
Clouds Few 800 ft
Few 2800 ft
Dew Point 70 °F
Humidity 94%
Rainfall 0.00 in
Snow Depth Not available.
UV 4 out of 12
Pollen 10.30 out of 12
Air Quality Not available.
Flu Activity Not available.
METAR KPTN 041515Z AUTO 16008KT 10SM FEW008 FEW028 22/21 A3000 RMK AO1

More Conditions Fewer Conditions

10-Day Weather Forecast

Almanac

Astronomy

Mar. 04, 2015 Rise Set
Actual Time
Civil Twilight
Nautical Twilight
Astronomical Twilight
Moon
Length of Visible Light
Length of Day
Tomorrow will be .
, % of the Moon is Illuminated

Today's Extremes

State Highs State Lows

Community

WunderPhotos

Upload Photos

1,802,489 photos uploaded!

WunderBlogs® & News

Nearby

Air Quality

  Air Quality AQ Index Pollutant
Not available.

Snow Depth

Station Depth Elevation

Earthquake Activity

City Distance Mag. Time & Date
Minimum magnitude displayed is 2.5.

Coastal Water Temperatures

Place Temperature

Nearby Weather Stations

Dense Fog Advisory
Statement as of 7:52 AM CST on March 04, 2015

... Dense fog advisory now in effect until 10 am CST Thursday...

* visibility... one quarter of a mile or less at times.

* Impacts... reduced visibility making for hazardous driving
conditions... especially when visibility change quickly over a
short distance.

Precautionary/preparedness actions...

A dense fog advisory means visibility will frequently be reduced
to less than one quarter mile. If driving... slow down... use your
headlights... and leave plenty of distance ahead of you.